createdAt,value
2022-07-25T00:01:08.637Z,4.80
2022-07-25T00:03:39.224Z,4.70
2022-07-25T00:06:12.812Z,4.80
2022-07-25T00:08:47.117Z,5.13
2022-07-25T00:11:15.271Z,5.07
2022-07-25T00:13:43.346Z,4.50
2022-07-25T00:16:11.575Z,4.73
2022-07-25T00:18:39.847Z,4.87
2022-07-25T00:21:07.933Z,5.20
2022-07-25T00:23:36.061Z,4.73
2022-07-25T00:26:05.849Z,4.77
2022-07-25T00:28:33.975Z,4.90
2022-07-25T00:31:02.135Z,4.60
2022-07-25T00:33:30.254Z,4.90
2022-07-25T00:35:58.451Z,4.60
2022-07-25T00:38:26.515Z,4.90
2022-07-25T00:40:55.651Z,4.87
2022-07-25T00:43:25.431Z,4.77
2022-07-25T00:45:53.579Z,5.20
2022-07-25T00:48:21.633Z,5.00
2022-07-25T00:50:49.709Z,4.93
2022-07-25T00:53:17.928Z,5.40
2022-07-25T00:55:47.314Z,5.20
2022-07-25T00:58:15.858Z,5.17
2022-07-25T01:00:45.526Z,5.13
2022-07-25T01:03:13.709Z,5.13
2022-07-25T01:05:42.166Z,4.97
2022-07-25T01:08:10.855Z,4.63
2022-07-25T01:10:39.282Z,4.70
2022-07-25T01:13:07.474Z,4.63
2022-07-25T01:15:35.763Z,4.27
2022-07-25T01:18:05.883Z,4.50
2022-07-25T01:20:35.988Z,4.57
2022-07-25T01:23:04.151Z,5.07
2022-07-25T01:25:32.311Z,4.57
2022-07-25T01:28:00.414Z,3.97
2022-07-25T01:30:28.524Z,4.13
2022-07-25T01:32:56.628Z,4.20
2022-07-25T01:35:24.701Z,4.10
2022-07-25T01:37:54.221Z,4.07
2022-07-25T01:40:22.381Z,3.83
2022-07-25T01:42:50.513Z,3.97
2022-07-25T01:45:18.644Z,4.03
2022-07-25T01:47:46.717Z,3.90
2022-07-25T01:50:14.766Z,3.47
2022-07-25T01:52:44.196Z,3.67
2022-07-25T01:55:13.820Z,3.90
2022-07-25T01:57:49.434Z,4.10
2022-07-25T02:00:18.713Z,3.90
2022-07-25T02:02:47.343Z,3.67
2022-07-25T02:05:16.268Z,3.97
2022-07-25T02:07:44.404Z,4.27
2022-07-25T02:10:13.841Z,3.50
2022-07-25T02:12:41.928Z,3.90
2022-07-25T02:15:10.849Z,4.13
2022-07-25T02:17:39.300Z,4.10
2022-07-25T02:20:08.479Z,3.87
2022-07-25T02:22:36.571Z,3.70
2022-07-25T02:25:05.115Z,3.90
2022-07-25T02:27:34.554Z,3.67
2022-07-25T02:30:02.995Z,3.90
2022-07-25T02:32:31.051Z,3.23
2022-07-25T02:34:59.271Z,3.73
2022-07-25T02:37:27.392Z,4.00
2022-07-25T02:39:55.480Z,3.90
2022-07-25T02:42:23.573Z,3.70
2022-07-25T02:44:53.153Z,3.87
2022-07-25T02:47:21.234Z,3.60
2022-07-25T02:49:49.309Z,4.20
2022-07-25T02:52:17.539Z,3.73
2022-07-25T02:54:45.614Z,3.93
2022-07-25T02:57:13.706Z,3.80
2022-07-25T02:59:41.855Z,3.90
2022-07-25T03:02:11.292Z,3.50
2022-07-25T03:04:39.361Z,3.77
2022-07-25T03:07:07.491Z,3.80
2022-07-25T03:09:35.604Z,3.80
2022-07-25T03:12:03.984Z,3.97
2022-07-25T03:14:32.120Z,3.87
2022-07-25T03:17:00.215Z,4.03
2022-07-25T03:19:29.736Z,4.10
2022-07-25T03:21:57.932Z,3.90
2022-07-25T03:24:25.992Z,4.00
2022-07-25T03:26:55.072Z,3.80
2022-07-25T03:29:23.211Z,3.57
2022-07-25T03:31:51.325Z,3.60
2022-07-25T03:34:19.514Z,3.77
2022-07-25T03:36:48.961Z,3.43
2022-07-25T03:39:17.077Z,3.90
2022-07-25T03:41:45.420Z,4.03
2022-07-25T03:44:13.545Z,3.63
2022-07-25T03:46:41.599Z,3.77
2022-07-25T03:49:09.796Z,4.13
2022-07-25T03:51:37.871Z,3.80
2022-07-25T03:54:08.976Z,3.53
2022-07-25T03:56:43.345Z,3.60
2022-07-25T03:59:14.143Z,4.00
2022-07-25T04:01:42.964Z,3.50
2022-07-25T04:04:11.261Z,3.40
2022-07-25T04:06:40.205Z,3.43
2022-07-25T04:09:11.044Z,3.43
2022-07-25T04:11:39.515Z,3.80
2022-07-25T04:14:08.257Z,3.30
2022-07-25T04:16:36.920Z,3.63
2022-07-25T04:19:06.274Z,3.60
2022-07-25T04:21:34.593Z,3.57
2022-07-25T04:24:02.885Z,3.60
2022-07-25T04:26:32.621Z,3.40
2022-07-25T04:29:03.491Z,3.37
2022-07-25T04:31:31.924Z,3.40
2022-07-25T04:34:00.253Z,3.10
2022-07-25T04:36:28.414Z,2.87
2022-07-25T04:38:56.509Z,2.93
2022-07-25T04:41:24.617Z,2.70
2022-07-25T04:43:54.104Z,3.10
2022-07-25T04:46:23.238Z,3.13
2022-07-25T04:48:52.280Z,2.87
2022-07-25T04:51:20.466Z,2.73
2022-07-25T04:53:48.523Z,2.83
2022-07-25T04:56:16.624Z,3.10
2022-07-25T04:58:44.765Z,2.80
2022-07-25T05:01:14.264Z,2.83
2022-07-25T05:03:50.483Z,3.30
2022-07-25T05:06:19.065Z,3.07
2022-07-25T05:08:47.316Z,3.03
2022-07-25T05:11:15.445Z,3.03
2022-07-25T05:13:43.495Z,2.87
2022-07-25T05:16:13.040Z,3.40
2022-07-25T05:18:41.173Z,2.83
2022-07-25T05:21:12.183Z,2.87
2022-07-25T05:23:40.514Z,2.90
2022-07-25T05:26:08.575Z,3.07
2022-07-25T05:28:36.847Z,2.97
2022-07-25T05:31:05.397Z,3.20
2022-07-25T05:33:35.109Z,2.90
2022-07-25T05:36:05.146Z,3.00
2022-07-25T05:38:33.511Z,2.90
2022-07-25T05:41:01.717Z,3.20
2022-07-25T05:43:29.861Z,3.27
2022-07-25T05:46:02.039Z,3.20
2022-07-25T05:48:30.233Z,3.10
2022-07-25T05:51:00.156Z,3.03
2022-07-25T05:53:28.233Z,3.20
2022-07-25T05:55:56.337Z,3.10
2022-07-25T05:58:29.486Z,2.97
2022-07-25T06:00:58.690Z,3.13
2022-07-25T06:03:27.032Z,3.10
2022-07-25T06:05:57.194Z,3.30
2022-07-25T06:08:28.663Z,3.00
2022-07-25T06:10:58.206Z,2.93
2022-07-25T06:13:26.778Z,3.27
2022-07-25T06:15:56.365Z,3.10
2022-07-25T06:18:24.682Z,2.53
2022-07-25T06:20:52.893Z,3.23
2022-07-25T06:23:21.184Z,3.20
2022-07-25T06:25:51.628Z,2.93
2022-07-25T06:28:19.733Z,3.70
2022-07-25T06:30:48.198Z,3.57
2022-07-25T06:33:16.312Z,3.27
2022-07-25T06:35:44.464Z,3.20
2022-07-25T06:38:12.765Z,2.90
2022-07-25T06:40:40.949Z,3.10
2022-07-25T06:43:10.387Z,3.23
2022-07-25T06:45:38.440Z,3.20
2022-07-25T06:48:07.242Z,3.30
2022-07-25T06:50:35.335Z,2.90
2022-07-25T06:53:03.425Z,2.63
2022-07-25T06:55:31.553Z,2.93
2022-07-25T06:57:59.665Z,3.13
2022-07-25T07:00:29.511Z,3.30
2022-07-25T07:03:01.317Z,3.70
2022-07-25T07:05:31.837Z,3.00
2022-07-25T07:08:00.733Z,3.33
2022-07-25T07:10:29.436Z,3.30
2022-07-25T07:13:09.445Z,3.13
2022-07-25T07:15:39.637Z,3.33
2022-07-25T07:18:08.288Z,3.30
2022-07-25T07:20:36.661Z,3.23
2022-07-25T07:23:04.806Z,3.30
2022-07-25T07:25:34.267Z,3.30
2022-07-25T07:28:02.431Z,3.17
2022-07-25T07:30:58.557Z,3.27
2022-07-25T07:33:20.325Z,3.10
2022-07-25T07:35:48.502Z,3.17
2022-07-25T07:38:17.952Z,3.30
2022-07-25T07:40:46.121Z,3.17
2022-07-25T07:43:14.226Z,3.60
2022-07-25T07:45:43.671Z,3.07
2022-07-25T07:48:11.783Z,3.37
2022-07-25T07:50:41.420Z,3.60
2022-07-25T07:53:09.538Z,3.43
2022-07-25T07:55:45.585Z,4.00
2022-07-25T07:58:16.072Z,3.83
2022-07-25T08:00:45.390Z,3.67
2022-07-25T08:03:13.919Z,3.80
2022-07-25T08:05:45.616Z,3.83
2022-07-25T08:08:15.494Z,4.23
2022-07-25T08:10:46.477Z,4.47
2022-07-25T08:13:17.284Z,4.70
2022-07-25T08:15:46.991Z,4.80
2022-07-25T08:18:17.915Z,4.80
2022-07-25T08:20:48.190Z,4.87
2022-07-25T08:23:17.195Z,4.80
2022-07-25T08:25:46.569Z,4.63
2022-07-25T08:28:14.853Z,5.13
2022-07-25T08:30:44.649Z,4.30
2022-07-25T08:33:16.072Z,4.57
2022-07-25T08:35:49.446Z,4.53
2022-07-25T08:38:18.198Z,4.60
2022-07-25T08:40:46.476Z,4.30
2022-07-25T08:43:15.673Z,4.33
2022-07-25T08:45:47.056Z,4.30
2022-07-25T08:48:17.613Z,4.03
2022-07-25T08:50:49.250Z,3.47
2022-07-25T08:53:35.906Z,3.40
2022-07-25T08:56:11.638Z,3.63
2022-07-25T08:58:41.904Z,3.77
2022-07-25T09:01:12.706Z,4.03
2022-07-25T09:03:41.188Z,3.57
2022-07-25T09:06:19.793Z,3.70
2022-07-25T09:08:56.024Z,3.70
2022-07-25T09:11:32.227Z,3.50
2022-07-25T09:14:02.485Z,3.70
2022-07-25T09:16:35.374Z,4.17
2022-07-25T09:19:14.367Z,4.00
2022-07-25T09:21:46.266Z,3.67
2022-07-25T09:24:16.918Z,3.90
2022-07-25T09:26:47.364Z,3.60
2022-07-25T09:29:24.714Z,3.60
2022-07-25T09:31:54.117Z,3.30
2022-07-25T09:34:36.283Z,3.30
2022-07-25T09:37:07.922Z,3.57
2022-07-25T09:39:45.916Z,3.40
2022-07-25T09:42:26.784Z,3.77
2022-07-25T09:45:03.922Z,3.60
2022-07-25T09:47:32.844Z,4.00
2022-07-25T09:50:01.724Z,3.57
2022-07-25T09:52:31.617Z,3.37
2022-07-25T09:55:00.336Z,3.67
2022-07-25T09:57:28.934Z,3.50
2022-07-25T09:59:57.243Z,3.60
2022-07-25T10:02:38.761Z,3.33
2022-07-25T10:05:14.934Z,3.70
2022-07-25T10:07:47.993Z,3.40
2022-07-25T10:10:25.907Z,4.00
2022-07-25T10:13:09.961Z,3.80
2022-07-25T10:15:49.803Z,3.70
2022-07-25T10:18:20.301Z,3.60
2022-07-25T10:20:50.414Z,3.57
2022-07-25T10:23:25.226Z,3.67
2022-07-25T10:26:09.597Z,3.33
2022-07-25T10:28:48.796Z,3.80
2022-07-25T10:31:22.990Z,3.47
2022-07-25T10:33:56.187Z,3.87
2022-07-25T10:36:25.465Z,3.40
2022-07-25T10:38:59.032Z,3.87
2022-07-25T10:41:28.758Z,3.83
2022-07-25T10:44:01.689Z,3.77
2022-07-25T10:46:32.623Z,3.60
2022-07-25T10:49:03.127Z,3.70
2022-07-25T10:51:38.204Z,3.40
2022-07-25T10:54:18.627Z,3.47
2022-07-25T10:56:57.837Z,3.40
2022-07-25T10:59:31.472Z,3.63
2022-07-25T11:01:59.780Z,3.27
2022-07-25T11:04:28.380Z,2.93
2022-07-25T11:06:56.497Z,3.30
2022-07-25T11:09:27.988Z,3.40
2022-07-25T11:11:58.325Z,2.92
2022-07-25T11:14:31.161Z,3.20
2022-07-25T11:16:59.480Z,3.10
2022-07-25T11:19:29.324Z,2.87
2022-07-25T11:22:00.071Z,3.10
2022-07-25T11:24:37.407Z,3.10
2022-07-25T11:27:12.225Z,2.87
2022-07-25T11:29:41.614Z,3.10
2022-07-25T11:32:11.771Z,2.90
2022-07-25T11:34:42.424Z,2.95
2022-07-25T11:37:12.964Z,2.67
2022-07-25T11:39:45.787Z,2.80
2022-07-25T11:42:16.445Z,2.80
2022-07-25T11:44:48.087Z,2.87
2022-07-25T11:47:28.107Z,2.85
2022-07-25T11:49:58.634Z,2.58
2022-07-25T11:52:29.836Z,3.17
2022-07-25T11:55:01.614Z,2.70
2022-07-25T11:57:31.722Z,2.65
2022-07-25T12:00:01.290Z,2.67
2022-07-25T12:02:37.791Z,2.70
2022-07-25T12:05:08.117Z,2.80
2022-07-25T12:07:41.262Z,2.70
2022-07-25T12:10:12.819Z,2.60
2022-07-25T12:12:46.231Z,2.72
2022-07-25T12:15:15.022Z,2.72
2022-07-25T12:17:43.825Z,2.60
2022-07-25T12:20:17.106Z,2.60
2022-07-25T12:22:45.827Z,2.63
2022-07-25T12:25:15.750Z,2.50
2022-07-25T12:27:44.830Z,2.95
2022-07-25T12:30:14.708Z,2.70
2022-07-25T12:32:43.200Z,2.80
2022-07-25T12:35:13.379Z,2.80
2022-07-25T12:37:42.185Z,2.72
2022-07-25T12:40:11.807Z,3.13
2022-07-25T12:42:41.640Z,2.63
2022-07-25T12:45:10.495Z,3.00
2022-07-25T12:47:39.020Z,3.40
2022-07-25T12:50:07.933Z,2.80
2022-07-25T12:52:37.731Z,2.85
2022-07-25T12:55:07.060Z,2.47
2022-07-25T12:57:36.911Z,2.80
2022-07-25T13:00:09.004Z,2.70
2022-07-25T13:02:37.924Z,2.72
2022-07-25T13:05:07.416Z,2.60
2022-07-25T13:07:36.104Z,2.63
2022-07-25T13:10:05.170Z,3.00
2022-07-25T13:12:33.680Z,2.88
2022-07-25T13:15:01.875Z,3.10
2022-07-25T13:17:32.482Z,2.90
2022-07-25T13:20:00.769Z,2.70
2022-07-25T13:22:28.929Z,2.78
2022-07-25T13:24:57.069Z,2.60
2022-07-25T13:27:25.149Z,3.10
2022-07-25T13:29:55.084Z,2.97
2022-07-25T13:32:23.997Z,2.78
2022-07-25T13:34:53.438Z,2.83
2022-07-25T13:37:21.561Z,3.28
2022-07-25T13:39:49.840Z,2.90
2022-07-25T13:42:17.979Z,2.83
2022-07-25T13:44:46.082Z,2.90
2022-07-25T13:47:14.242Z,3.28
2022-07-25T13:49:42.385Z,2.90
2022-07-25T13:52:11.834Z,3.10
2022-07-25T13:54:39.955Z,2.90
2022-07-25T13:57:09.363Z,2.55
2022-07-25T13:59:38.157Z,2.97
2022-07-25T14:02:06.430Z,2.60
2022-07-25T14:04:34.700Z,2.60
2022-07-25T14:07:03.007Z,2.95
2022-07-25T14:09:32.533Z,2.50
2022-07-25T14:12:00.591Z,2.67
2022-07-25T14:14:28.671Z,2.80
2022-07-25T14:16:56.821Z,2.78
2022-07-25T14:19:25.142Z,2.80
2022-07-25T14:21:53.529Z,2.83
2022-07-25T14:24:21.597Z,2.50
2022-07-25T14:26:51.076Z,2.63
2022-07-25T14:29:19.217Z,2.47
2022-07-25T14:31:47.328Z,2.53
2022-07-25T14:34:16.458Z,2.30
2022-07-25T14:36:47.493Z,2.40
2022-07-25T14:39:16.206Z,2.67
2022-07-25T14:41:44.399Z,2.40
2022-07-25T14:44:14.924Z,2.42
2022-07-25T14:46:43.960Z,2.33
2022-07-25T14:49:13.911Z,2.85
2022-07-25T14:51:43.012Z,2.53
2022-07-25T14:54:11.101Z,2.63
2022-07-25T14:56:39.610Z,2.72
2022-07-25T14:59:08.298Z,2.45
2022-07-25T15:01:39.374Z,2.35
2022-07-25T15:04:07.822Z,2.55
2022-07-25T15:06:36.673Z,2.20
2022-07-25T15:09:05.324Z,2.70
2022-07-25T15:11:33.947Z,2.20
2022-07-25T15:14:02.039Z,2.42
2022-07-25T15:16:30.283Z,2.40
2022-07-25T15:19:15.842Z,2.70
2022-07-25T15:21:44.954Z,2.60
2022-07-25T15:24:13.287Z,2.40
2022-07-25T15:26:41.435Z,2.63
2022-07-25T15:29:11.318Z,2.20
2022-07-25T15:31:39.764Z,2.80
2022-07-25T15:34:09.197Z,2.20
2022-07-25T15:36:37.320Z,2.37
2022-07-25T15:39:05.844Z,2.30
2022-07-25T15:41:34.194Z,2.30
2022-07-25T15:44:02.599Z,2.50
2022-07-25T15:46:30.891Z,2.55
2022-07-25T15:48:59.050Z,2.50
2022-07-25T15:51:28.528Z,2.30
2022-07-25T15:53:56.657Z,3.63
2022-07-25T15:56:25.460Z,2.50
2022-07-25T15:58:53.534Z,2.57
2022-07-25T16:01:22.070Z,2.60
2022-07-25T16:03:50.387Z,2.60
2022-07-25T16:06:20.786Z,2.30
2022-07-25T16:08:50.553Z,2.50
2022-07-25T16:11:25.282Z,2.77
2022-07-25T16:13:53.786Z,2.70
2022-07-25T16:16:22.962Z,2.67
2022-07-25T16:18:51.152Z,2.40
2022-07-25T16:21:19.484Z,2.42
2022-07-25T16:23:47.743Z,2.65
2022-07-25T16:26:17.240Z,2.63
2022-07-25T16:28:45.415Z,2.50
2022-07-25T16:31:13.670Z,2.63
2022-07-25T16:33:41.898Z,2.60
2022-07-25T16:36:11.670Z,2.58
2022-07-25T16:38:39.781Z,2.50
2022-07-25T16:41:07.899Z,2.60
2022-07-25T16:43:37.405Z,2.75
2022-07-25T16:46:05.811Z,2.63
2022-07-25T16:48:34.094Z,2.58
2022-07-25T16:51:02.259Z,2.80
2022-07-25T16:53:30.330Z,2.60
2022-07-25T16:55:58.559Z,2.67
2022-07-25T16:58:27.223Z,2.55
2022-07-25T17:00:56.747Z,2.50
2022-07-25T17:03:24.813Z,2.80
2022-07-25T17:05:53.973Z,2.67
2022-07-25T17:08:22.098Z,2.67
2022-07-25T17:10:50.313Z,3.85
2022-07-25T17:13:18.416Z,3.85
2022-07-25T17:15:46.663Z,3.90
2022-07-25T17:18:16.088Z,4.03
2022-07-25T17:20:44.480Z,4.20
2022-07-25T17:23:12.627Z,4.53
2022-07-25T17:25:41.152Z,4.93
2022-07-25T17:28:09.374Z,5.03
2022-07-25T17:30:37.497Z,5.50
2022-07-25T17:33:05.597Z,6.10
2022-07-25T17:35:35.130Z,5.40
2022-07-25T17:38:05.393Z,5.40
2022-07-25T17:40:33.549Z,5.90
2022-07-25T17:43:01.662Z,6.00
2022-07-25T17:45:29.939Z,6.30
2022-07-25T17:47:58.059Z,6.53
2022-07-25T17:50:29.608Z,6.37
2022-07-25T17:53:00.081Z,6.50
2022-07-25T17:55:28.938Z,6.60
2022-07-25T17:57:59.640Z,6.27
2022-07-25T18:00:28.389Z,7.17
2022-07-25T18:02:56.574Z,6.70
2022-07-25T18:05:24.906Z,7.23
2022-07-25T18:07:53.913Z,7.13
2022-07-25T18:10:24.445Z,6.90
2022-07-25T18:12:52.530Z,7.63
2022-07-25T18:15:20.738Z,7.87
2022-07-25T18:17:49.499Z,7.53
2022-07-25T18:20:17.828Z,7.93
2022-07-25T18:22:45.970Z,7.73
2022-07-25T18:25:15.447Z,8.60
2022-07-25T18:27:46.918Z,8.03
2022-07-25T18:30:16.880Z,9.70
2022-07-25T18:32:45.658Z,9.80
2022-07-25T18:35:14.670Z,9.90
2022-07-25T18:37:43.895Z,9.40
2022-07-25T18:40:12.765Z,9.27
2022-07-25T18:42:40.962Z,8.47
2022-07-25T18:45:11.931Z,7.97
2022-07-25T18:47:40.445Z,8.83
2022-07-25T18:50:09.313Z,9.47
2022-07-25T18:52:37.595Z,9.90
2022-07-25T18:55:08.815Z,10.67
2022-07-25T18:57:37.180Z,10.33
2022-07-25T19:00:06.586Z,9.37
2022-07-25T19:02:36.041Z,8.70
2022-07-25T19:05:04.236Z,9.37
2022-07-25T19:07:32.428Z,9.17
2022-07-25T19:10:00.499Z,9.57
2022-07-25T19:12:28.846Z,10.23
2022-07-25T19:14:57.257Z,10.20
2022-07-25T19:17:25.497Z,10.03
2022-07-25T19:19:54.980Z,9.10
2022-07-25T19:22:23.088Z,8.87
2022-07-25T19:24:51.216Z,8.20
2022-07-25T19:27:20.545Z,8.30
2022-07-25T19:29:48.731Z,8.70
2022-07-25T19:32:18.185Z,8.57
2022-07-25T19:34:46.727Z,9.03
2022-07-25T19:37:16.361Z,8.90
2022-07-25T19:39:47.542Z,9.50
2022-07-25T19:42:15.703Z,9.37
2022-07-25T19:44:43.838Z,9.67
2022-07-25T19:47:12.208Z,9.80
2022-07-25T19:49:40.654Z,10.13
2022-07-25T19:52:10.056Z,10.37
2022-07-25T19:54:39.833Z,10.13
2022-07-25T19:57:08.168Z,9.93
2022-07-25T19:59:36.625Z,10.07
2022-07-25T20:02:05.382Z,9.83
2022-07-25T20:04:33.550Z,10.77
2022-07-25T20:07:02.320Z,10.37
2022-07-25T20:09:30.785Z,10.63
2022-07-25T20:12:00.439Z,11.83
2022-07-25T20:14:28.501Z,10.50
2022-07-25T20:16:57.743Z,11.77
2022-07-25T20:19:25.999Z,10.63
2022-07-25T20:21:54.115Z,10.67
2022-07-25T20:24:22.238Z,10.10
2022-07-25T20:26:50.443Z,11.10
2022-07-25T20:29:19.918Z,12.13
2022-07-25T20:31:48.119Z,11.13
2022-07-25T20:34:16.891Z,10.40
2022-07-25T20:36:47.723Z,11.03
2022-07-25T20:39:15.846Z,11.10
2022-07-25T20:41:44.671Z,10.77
2022-07-25T20:44:13.038Z,10.80
2022-07-25T20:46:42.614Z,11.73
2022-07-25T20:49:12.495Z,11.23
2022-07-25T20:51:41.906Z,10.77
2022-07-25T20:54:10.135Z,10.70
2022-07-25T20:56:38.308Z,10.83
2022-07-25T20:59:07.097Z,11.20
2022-07-25T21:01:35.611Z,10.57
2022-07-25T21:04:07.682Z,10.20
2022-07-25T21:06:36.811Z,10.43
2022-07-25T21:09:06.092Z,10.57
2022-07-25T21:11:35.565Z,11.20
2022-07-25T21:14:04.404Z,11.00
2022-07-25T21:16:33.335Z,10.93
2022-07-25T21:19:01.499Z,10.80
2022-07-25T21:21:31.072Z,11.03
2022-07-25T21:23:59.125Z,10.90
2022-07-25T21:26:27.465Z,10.60
2022-07-25T21:28:55.600Z,9.90
2022-07-25T21:31:23.848Z,10.07
2022-07-25T21:33:52.006Z,10.17
2022-07-25T21:36:20.072Z,11.10
2022-07-25T21:38:49.582Z,10.63
2022-07-25T21:41:17.707Z,9.83
2022-07-25T21:43:46.604Z,10.23
2022-07-25T21:46:14.752Z,10.40
2022-07-25T21:49:00.521Z,11.63
2022-07-25T21:51:36.772Z,10.73
2022-07-25T21:54:10.599Z,11.50
2022-07-25T21:56:39.276Z,11.37
2022-07-25T21:59:07.653Z,11.77
2022-07-25T22:01:36.112Z,12.07
2022-07-25T22:04:05.113Z,11.20
2022-07-25T22:06:33.310Z,11.23
2022-07-25T22:09:01.597Z,12.10
2022-07-25T22:11:42.294Z,12.13
2022-07-25T22:14:13.988Z,13.13
2022-07-25T22:16:42.129Z,13.37
2022-07-25T22:19:10.778Z,12.70
2022-07-25T22:21:40.165Z,12.87
2022-07-25T22:24:08.843Z,13.10
2022-07-25T22:26:38.742Z,11.60
2022-07-25T22:29:07.116Z,12.17
2022-07-25T22:31:35.537Z,12.70
2022-07-25T22:34:03.660Z,13.73
2022-07-25T22:36:31.802Z,14.67
2022-07-25T22:38:59.886Z,14.70
2022-07-25T22:41:28.025Z,14.00
2022-07-25T22:43:59.903Z,15.20
2022-07-25T22:46:29.110Z,14.87
2022-07-25T22:48:57.762Z,14.37
2022-07-25T22:51:26.696Z,15.27
2022-07-25T22:53:54.815Z,15.07
2022-07-25T22:56:23.685Z,14.93
2022-07-25T22:58:51.807Z,14.70
2022-07-25T23:01:21.800Z,14.73
2022-07-25T23:03:50.818Z,13.00
2022-07-25T23:06:20.105Z,13.50
2022-07-25T23:08:48.475Z,13.37
2022-07-25T23:11:17.134Z,14.93
2022-07-25T23:13:45.193Z,13.93
2022-07-25T23:16:13.353Z,14.57
2022-07-25T23:18:42.924Z,14.07
2022-07-25T23:21:11.196Z,13.93
2022-07-25T23:23:39.526Z,14.57
2022-07-25T23:26:07.597Z,14.70
2022-07-25T23:28:35.757Z,14.03
2022-07-25T23:31:03.908Z,14.17
2022-07-25T23:33:32.114Z,13.90
2022-07-25T23:36:01.595Z,14.97
2022-07-25T23:38:29.718Z,14.90
2022-07-25T23:40:57.747Z,15.17
2022-07-25T23:43:54.965Z,14.67
2022-07-25T23:46:13.959Z,13.63
2022-07-25T23:48:43.382Z,13.17
2022-07-25T23:51:12.874Z,13.27
2022-07-25T23:53:41.154Z,13.13
2022-07-25T23:56:09.524Z,12.10
2022-07-25T23:58:37.671Z,11.33
